createdAt,value
2019-03-25T00:00:22.148Z,5.29
2019-03-25T00:01:22.482Z,5.31
2019-03-25T00:02:22.793Z,5.31
2019-03-25T00:03:23.153Z,5.31
2019-03-25T00:04:23.445Z,5.26
2019-03-25T00:05:23.811Z,5.33
2019-03-25T00:06:24.117Z,5.22
2019-03-25T00:07:24.540Z,5.20
2019-03-25T00:08:24.795Z,5.12
2019-03-25T00:09:25.075Z,5.20
2019-03-25T00:10:25.444Z,5.10
2019-03-25T00:11:25.771Z,5.20
2019-03-25T00:12:26.101Z,5.25
2019-03-25T00:13:26.472Z,5.25
2019-03-25T00:14:26.760Z,5.26
2019-03-25T00:15:27.136Z,5.25
2019-03-25T00:16:27.424Z,5.13
2019-03-25T00:17:27.758Z,5.18
2019-03-25T00:18:28.101Z,5.13
2019-03-25T00:19:28.407Z,5.13
2019-03-25T00:20:28.755Z,5.13
2019-03-25T00:21:29.063Z,5.20
2019-03-25T00:22:29.393Z,5.15
2019-03-25T00:23:29.769Z,5.15
2019-03-25T00:24:38.246Z,5.13
2019-03-25T00:25:31.460Z,5.00
2019-03-25T00:26:30.767Z,5.16
2019-03-25T00:27:31.074Z,5.05
2019-03-25T00:28:31.452Z,5.08
2019-03-25T00:29:45.402Z,5.05
2019-03-25T00:30:32.087Z,5.08
2019-03-25T00:31:32.462Z,5.05
2019-03-25T00:32:33.051Z,5.02
2019-03-25T00:33:33.089Z,5.02
2019-03-25T00:34:33.397Z,5.08
2019-03-25T00:35:33.740Z,4.94
2019-03-25T00:36:34.066Z,5.02
2019-03-25T00:37:34.375Z,5.05
2019-03-25T00:38:34.707Z,4.94
2019-03-25T00:39:35.039Z,5.01
2019-03-25T00:40:35.440Z,5.12
2019-03-25T00:41:35.686Z,5.08
2019-03-25T00:42:35.997Z,5.02
2019-03-25T00:43:36.356Z,5.02
2019-03-25T00:44:36.687Z,5.04
2019-03-25T00:45:37.006Z,4.92
2019-03-25T00:46:37.352Z,4.90
2019-03-25T00:47:37.687Z,5.00
2019-03-25T00:48:38.036Z,5.00
2019-03-25T00:49:38.334Z,5.00
2019-03-25T00:50:38.674Z,4.90
2019-03-25T00:51:39.016Z,4.95
2019-03-25T00:52:39.346Z,5.00
2019-03-25T00:53:39.699Z,5.07
2019-03-25T00:54:49.381Z,5.13
2019-03-25T00:55:41.315Z,5.12
2019-03-25T00:56:40.734Z,5.02
2019-03-25T00:57:40.969Z,5.02
2019-03-25T00:58:41.327Z,5.08
2019-03-25T00:59:41.661Z,5.10
2019-03-25T01:00:41.956Z,5.08
2019-03-25T01:01:42.308Z,5.12
2019-03-25T01:02:42.659Z,5.12
2019-03-25T01:03:43.017Z,5.10
2019-03-25T01:04:43.336Z,5.13
2019-03-25T01:05:43.692Z,5.16
2019-03-25T01:06:43.965Z,5.16
2019-03-25T01:07:44.298Z,5.15
2019-03-25T01:08:44.650Z,5.12
2019-03-25T01:09:44.960Z,5.20
2019-03-25T01:10:45.280Z,5.16
2019-03-25T01:11:49.125Z,5.16
2019-03-25T01:12:45.924Z,5.23
2019-03-25T01:13:46.403Z,5.20
2019-03-25T01:14:46.608Z,5.18
2019-03-25T01:15:46.922Z,5.26
2019-03-25T01:16:47.255Z,5.25
2019-03-25T01:17:47.566Z,5.16
2019-03-25T01:18:47.943Z,5.23
2019-03-25T01:19:48.264Z,5.12
2019-03-25T01:20:48.578Z,5.18
2019-03-25T01:21:48.988Z,5.20
2019-03-25T01:22:49.203Z,5.20
2019-03-25T01:23:49.569Z,5.13
2019-03-25T01:25:00.821Z,5.15
2019-03-25T01:25:51.213Z,5.13
2019-03-25T01:26:50.565Z,5.18
2019-03-25T01:27:50.869Z,5.19
2019-03-25T01:28:51.213Z,5.18
2019-03-25T01:29:51.597Z,5.13
2019-03-25T01:30:51.857Z,5.25
2019-03-25T01:31:52.211Z,5.08
2019-03-25T01:32:52.516Z,5.19
2019-03-25T01:33:52.861Z,5.18
2019-03-25T01:34:53.177Z,5.18
2019-03-25T01:35:53.518Z,5.22
2019-03-25T01:36:53.860Z,5.23
2019-03-25T01:37:54.212Z,5.26
2019-03-25T01:38:54.559Z,5.16
2019-03-25T01:39:54.823Z,5.13
2019-03-25T01:40:55.160Z,5.22
2019-03-25T01:41:55.506Z,5.25
2019-03-25T01:42:55.808Z,5.23
2019-03-25T01:43:56.165Z,5.13
2019-03-25T01:44:56.495Z,5.20
2019-03-25T01:45:56.796Z,5.07
2019-03-25T01:46:57.242Z,5.19
2019-03-25T01:47:57.461Z,5.16
2019-03-25T01:48:57.816Z,5.20
2019-03-25T01:49:58.169Z,5.16
2019-03-25T01:50:58.427Z,5.13
2019-03-25T01:51:58.792Z,5.10
2019-03-25T01:52:59.106Z,5.07
2019-03-25T01:53:59.440Z,4.95
2019-03-25T01:55:00.353Z,4.95
2019-03-25T01:56:00.091Z,4.92
2019-03-25T01:57:00.455Z,5.00
2019-03-25T01:58:00.765Z,5.05
2019-03-25T01:59:01.080Z,5.08
2019-03-25T02:00:01.460Z,5.00
2019-03-25T02:01:01.755Z,4.94
2019-03-25T02:02:02.084Z,4.97
2019-03-25T02:03:02.465Z,4.94
2019-03-25T02:04:02.720Z,4.87
2019-03-25T02:05:03.091Z,4.92
2019-03-25T02:06:03.390Z,4.92
2019-03-25T02:07:03.739Z,4.86
2019-03-25T02:08:04.035Z,4.83
2019-03-25T02:09:04.375Z,4.82
2019-03-25T02:10:04.769Z,4.76
2019-03-25T02:11:05.077Z,4.78
2019-03-25T02:12:05.365Z,4.75
2019-03-25T02:13:05.679Z,4.70
2019-03-25T02:14:06.024Z,4.82
2019-03-25T02:15:06.413Z,4.70
2019-03-25T02:16:06.694Z,4.68
2019-03-25T02:17:07.042Z,4.75
2019-03-25T02:18:07.345Z,4.75
2019-03-25T02:19:07.701Z,4.63
2019-03-25T02:20:08.155Z,4.70
2019-03-25T02:21:08.355Z,4.57
2019-03-25T02:22:08.938Z,4.71
2019-03-25T02:23:09.425Z,4.67
2019-03-25T02:24:09.335Z,4.64
2019-03-25T02:25:09.683Z,4.67
2019-03-25T02:26:10.007Z,4.64
2019-03-25T02:27:10.350Z,4.61
2019-03-25T02:28:10.771Z,4.60
2019-03-25T02:29:10.969Z,4.60
2019-03-25T02:30:11.333Z,4.50
2019-03-25T02:31:11.676Z,4.45
2019-03-25T02:32:12.005Z,4.48
2019-03-25T02:33:12.335Z,4.38
2019-03-25T02:34:12.655Z,4.45
2019-03-25T02:35:12.983Z,4.39
2019-03-25T02:36:13.377Z,4.36
2019-03-25T02:37:13.644Z,4.22
2019-03-25T02:38:13.962Z,4.25
2019-03-25T02:39:14.298Z,4.16
2019-03-25T02:40:14.660Z,4.18
2019-03-25T02:41:14.938Z,4.18
2019-03-25T02:42:15.297Z,4.12
2019-03-25T02:43:15.636Z,4.04
2019-03-25T02:44:15.994Z,4.02
2019-03-25T02:45:16.285Z,4.04
2019-03-25T02:46:16.619Z,3.96
2019-03-25T02:47:16.926Z,3.96
2019-03-25T02:48:17.249Z,3.88
2019-03-25T02:49:17.602Z,3.89
2019-03-25T02:50:17.933Z,3.92
2019-03-25T02:51:18.245Z,3.88
2019-03-25T02:52:18.595Z,3.92
2019-03-25T02:53:18.973Z,3.86
2019-03-25T02:54:19.273Z,3.91
2019-03-25T02:55:19.604Z,3.88
2019-03-25T02:56:19.900Z,3.88
2019-03-25T02:57:20.224Z,3.89
2019-03-25T02:58:20.555Z,3.85
2019-03-25T02:59:20.947Z,3.86
2019-03-25T03:00:21.257Z,3.78
2019-03-25T03:01:21.685Z,3.82
2019-03-25T03:02:21.873Z,3.81
2019-03-25T03:03:22.242Z,3.74
2019-03-25T03:04:22.628Z,3.77
2019-03-25T03:05:22.935Z,3.85
2019-03-25T03:06:23.245Z,3.76
2019-03-25T03:07:23.643Z,3.74
2019-03-25T03:08:23.934Z,3.89
2019-03-25T03:09:24.344Z,3.78
2019-03-25T03:10:24.581Z,3.86
2019-03-25T03:11:24.898Z,3.89
2019-03-25T03:12:25.218Z,3.85
2019-03-25T03:13:25.564Z,3.91
2019-03-25T03:14:25.870Z,3.86
2019-03-25T03:15:26.229Z,3.82
2019-03-25T03:16:26.562Z,3.89
2019-03-25T03:17:26.910Z,3.89
2019-03-25T03:18:27.206Z,3.88
2019-03-25T03:19:27.529Z,3.92
2019-03-25T03:20:27.856Z,3.92
2019-03-25T03:21:28.204Z,4.00
2019-03-25T03:22:28.530Z,3.96
2019-03-25T03:23:28.874Z,3.96
2019-03-25T03:24:29.183Z,4.06
2019-03-25T03:25:29.588Z,4.09
2019-03-25T03:26:29.852Z,4.00
2019-03-25T03:27:30.227Z,4.09
2019-03-25T03:28:30.531Z,4.09
2019-03-25T03:29:30.841Z,4.07
2019-03-25T03:30:31.181Z,4.10
2019-03-25T03:31:31.491Z,4.10
2019-03-25T03:32:31.822Z,4.07
2019-03-25T03:33:32.208Z,4.10
2019-03-25T03:34:32.618Z,4.07
2019-03-25T03:35:32.866Z,4.09
2019-03-25T03:36:33.146Z,4.04
2019-03-25T03:37:33.481Z,4.10
2019-03-25T03:38:33.846Z,4.02
2019-03-25T03:39:34.160Z,4.03
2019-03-25T03:40:34.505Z,4.03
2019-03-25T03:41:34.829Z,4.03
2019-03-25T03:42:35.286Z,4.07
2019-03-25T03:43:35.504Z,4.04
2019-03-25T03:44:35.821Z,4.07
2019-03-25T03:45:36.166Z,4.10
2019-03-25T03:46:36.469Z,4.09
2019-03-25T03:47:36.796Z,4.14
2019-03-25T03:48:37.157Z,4.04
2019-03-25T03:49:37.474Z,4.07
2019-03-25T03:50:37.868Z,4.09
2019-03-25T03:51:38.135Z,4.09
2019-03-25T03:52:38.451Z,4.14
2019-03-25T03:53:38.798Z,4.07
2019-03-25T03:54:39.126Z,4.12
2019-03-25T03:55:39.445Z,4.10
2019-03-25T03:56:39.797Z,4.10
2019-03-25T03:57:40.105Z,4.12
2019-03-25T03:58:40.460Z,4.18
2019-03-25T03:59:40.735Z,4.21
2019-03-25T04:00:41.095Z,4.12
2019-03-25T04:01:41.834Z,4.18
2019-03-25T04:02:41.983Z,4.12
2019-03-25T04:03:42.089Z,4.07
2019-03-25T04:04:42.416Z,4.18
2019-03-25T04:05:42.747Z,4.14
2019-03-25T04:06:43.146Z,4.13
2019-03-25T04:07:43.460Z,4.16
2019-03-25T04:08:43.772Z,4.12
2019-03-25T04:09:44.079Z,4.10
2019-03-25T04:10:44.410Z,4.09
2019-03-25T04:11:44.763Z,4.09
2019-03-25T04:12:45.063Z,4.07
2019-03-25T04:13:45.414Z,4.07
2019-03-25T04:14:45.731Z,4.06
2019-03-25T04:15:46.191Z,4.03
2019-03-25T04:16:46.399Z,4.02
2019-03-25T04:17:46.707Z,4.04
2019-03-25T04:18:47.051Z,4.06
2019-03-25T04:19:47.362Z,4.00
2019-03-25T04:20:47.698Z,3.99
2019-03-25T04:21:48.035Z,3.95
2019-03-25T04:22:48.368Z,4.03
2019-03-25T04:23:48.796Z,4.02
2019-03-25T04:24:49.003Z,4.03
2019-03-25T04:25:49.338Z,3.95
2019-03-25T04:26:49.659Z,3.88
2019-03-25T04:27:50.009Z,4.04
2019-03-25T04:28:50.343Z,3.99
2019-03-25T04:29:50.653Z,3.94
2019-03-25T04:30:50.985Z,4.10
2019-03-25T04:31:51.361Z,4.07
2019-03-25T04:32:51.823Z,4.12
2019-03-25T04:33:51.981Z,4.09
2019-03-25T04:34:52.295Z,4.12
2019-03-25T04:35:52.623Z,4.09
2019-03-25T04:36:52.984Z,4.16
2019-03-25T04:37:56.177Z,4.12
2019-03-25T04:38:53.615Z,4.22
2019-03-25T04:39:54.012Z,4.18
2019-03-25T04:40:54.301Z,4.16
2019-03-25T04:41:54.648Z,4.22
2019-03-25T04:42:54.954Z,4.24
2019-03-25T04:43:55.279Z,4.18
2019-03-25T04:44:55.582Z,4.24
2019-03-25T04:45:55.935Z,4.20
2019-03-25T04:46:56.282Z,4.28
2019-03-25T04:47:56.612Z,4.27
2019-03-25T04:48:57.040Z,4.25
2019-03-25T04:49:57.247Z,4.22
2019-03-25T04:50:57.582Z,4.24
2019-03-25T04:51:57.925Z,4.38
2019-03-25T04:52:58.249Z,4.38
2019-03-25T04:53:58.589Z,4.38
2019-03-25T04:54:58.876Z,4.31
2019-03-25T04:55:59.208Z,4.40
2019-03-25T04:56:59.722Z,4.43
2019-03-25T04:57:59.898Z,4.39
2019-03-25T04:59:00.238Z,4.46
2019-03-25T05:00:00.555Z,4.42
2019-03-25T05:01:05.841Z,4.40
2019-03-25T05:02:01.225Z,4.39
2019-03-25T05:03:01.558Z,4.52
2019-03-25T05:04:01.882Z,4.49
2019-03-25T05:05:02.283Z,4.53
2019-03-25T05:06:02.482Z,4.57
2019-03-25T05:07:02.873Z,4.57
2019-03-25T05:08:03.186Z,4.64
2019-03-25T05:09:03.519Z,4.61
2019-03-25T05:10:03.832Z,4.60
2019-03-25T05:11:04.158Z,4.60
2019-03-25T05:12:04.492Z,4.66
2019-03-25T05:13:04.883Z,4.75
2019-03-25T05:14:05.129Z,4.75
2019-03-25T05:15:05.468Z,4.68
2019-03-25T05:16:05.790Z,4.68
2019-03-25T05:17:06.122Z,4.78
2019-03-25T05:18:06.440Z,4.74
2019-03-25T05:19:06.788Z,4.75
2019-03-25T05:20:07.130Z,4.83
2019-03-25T05:21:07.480Z,4.82
2019-03-25T05:22:07.943Z,4.82
2019-03-25T05:23:08.114Z,4.83
2019-03-25T05:24:08.450Z,4.82
2019-03-25T05:25:08.793Z,4.79
2019-03-25T05:26:09.109Z,4.82
2019-03-25T05:27:09.460Z,4.84
2019-03-25T05:28:09.776Z,4.79
2019-03-25T05:29:10.094Z,4.84
2019-03-25T05:30:10.523Z,4.86
2019-03-25T05:31:10.767Z,4.79
2019-03-25T05:32:11.491Z,4.84
2019-03-25T05:33:11.427Z,4.87
2019-03-25T05:34:11.738Z,4.87
2019-03-25T05:35:12.084Z,4.90
2019-03-25T05:36:12.400Z,4.95
2019-03-25T05:37:12.755Z,4.92
2019-03-25T05:38:13.173Z,4.95
2019-03-25T05:39:13.372Z,4.94
2019-03-25T05:40:13.970Z,5.00
2019-03-25T05:41:14.052Z,5.01
2019-03-25T05:42:14.393Z,5.01
2019-03-25T05:43:14.716Z,5.04
2019-03-25T05:44:15.035Z,5.10
2019-03-25T05:45:15.365Z,5.05
2019-03-25T05:46:15.747Z,5.12
2019-03-25T05:47:16.031Z,5.07
2019-03-25T05:48:16.381Z,5.05
2019-03-25T05:49:16.700Z,5.12
2019-03-25T05:50:17.035Z,5.15
2019-03-25T05:51:17.333Z,5.13
2019-03-25T05:52:17.690Z,5.25
2019-03-25T05:53:18.018Z,5.23
2019-03-25T05:54:18.396Z,5.16
2019-03-25T05:55:18.705Z,5.16
2019-03-25T05:56:18.984Z,5.16
2019-03-25T05:57:19.334Z,4.95
2019-03-25T05:58:19.708Z,5.00
2019-03-25T05:59:19.993Z,4.94
2019-03-25T06:00:20.339Z,4.79
2019-03-25T06:01:20.651Z,4.78
2019-03-25T06:02:21.022Z,4.52
2019-03-25T06:03:21.443Z,4.45
2019-03-25T06:04:21.641Z,4.34
2019-03-25T06:05:21.988Z,4.20
2019-03-25T06:06:22.301Z,4.16
2019-03-25T06:07:22.648Z,4.03
2019-03-25T06:08:22.972Z,3.91
2019-03-25T06:09:23.292Z,3.89
2019-03-25T06:10:23.633Z,3.86
2019-03-25T06:11:24.035Z,3.76
2019-03-25T06:12:24.273Z,3.74
2019-03-25T06:13:24.626Z,3.71
2019-03-25T06:14:24.959Z,3.70
2019-03-25T06:15:25.301Z,3.76
2019-03-25T06:16:25.614Z,3.66
2019-03-25T06:17:25.957Z,3.66
2019-03-25T06:18:26.276Z,3.67
2019-03-25T06:19:26.669Z,3.68
2019-03-25T06:20:26.933Z,3.49
2019-03-25T06:21:27.255Z,3.67
2019-03-25T06:22:27.586Z,3.61
2019-03-25T06:23:27.938Z,3.67
2019-03-25T06:24:28.253Z,3.70
2019-03-25T06:25:28.612Z,3.64
2019-03-25T06:26:28.935Z,3.64
2019-03-25T06:27:29.315Z,3.68
2019-03-25T06:28:29.610Z,3.76
2019-03-25T06:29:31.944Z,3.74
2019-03-25T06:30:30.251Z,3.66
2019-03-25T06:31:30.595Z,3.74
2019-03-25T06:32:30.944Z,3.73
2019-03-25T06:33:31.290Z,3.74
2019-03-25T06:34:31.623Z,3.82
2019-03-25T06:35:31.962Z,3.73
2019-03-25T06:36:32.333Z,3.68
2019-03-25T06:37:32.592Z,3.63
2019-03-25T06:38:32.941Z,3.56
2019-03-25T06:39:33.264Z,3.55
2019-03-25T06:40:33.595Z,3.48
2019-03-25T06:41:33.895Z,3.43
2019-03-25T06:42:34.242Z,3.33
2019-03-25T06:43:34.611Z,3.37
2019-03-25T06:44:35.037Z,3.36
2019-03-25T06:45:35.256Z,3.41
2019-03-25T06:46:35.560Z,3.40
2019-03-25T06:47:35.913Z,3.19
2019-03-25T06:48:36.246Z,3.16
2019-03-25T06:49:36.575Z,3.11
2019-03-25T06:50:36.919Z,2.98
2019-03-25T06:51:37.232Z,2.87
2019-03-25T06:52:37.630Z,2.83
2019-03-25T06:53:37.893Z,2.79
2019-03-25T06:54:38.220Z,2.73
2019-03-25T06:55:38.556Z,2.75
2019-03-25T06:56:38.868Z,2.73
2019-03-25T06:57:39.182Z,2.75
2019-03-25T06:58:39.545Z,2.75
2019-03-25T06:59:39.885Z,2.70
2019-03-25T07:00:40.299Z,2.73
2019-03-25T07:01:40.517Z,2.72
2019-03-25T07:02:40.858Z,2.75
2019-03-25T07:03:41.185Z,2.69
2019-03-25T07:04:41.515Z,2.65
2019-03-25T07:05:41.857Z,2.68
2019-03-25T07:06:42.171Z,2.62
2019-03-25T07:07:42.500Z,2.50
2019-03-25T07:08:42.926Z,2.52
2019-03-25T07:09:43.158Z,2.55
2019-03-25T07:10:43.515Z,2.50
2019-03-25T07:11:43.823Z,2.44
2019-03-25T07:12:44.154Z,2.51
2019-03-25T07:13:44.514Z,2.34
2019-03-25T07:14:44.823Z,2.44
2019-03-25T07:15:45.150Z,2.51
2019-03-25T07:16:45.490Z,2.32
2019-03-25T07:17:45.956Z,2.33
2019-03-25T07:18:46.407Z,2.39
2019-03-25T07:19:46.492Z,2.47
2019-03-25T07:20:46.795Z,2.43
2019-03-25T07:21:47.142Z,2.37
2019-03-25T07:22:47.489Z,2.40
2019-03-25T07:23:47.831Z,2.46
2019-03-25T07:24:48.150Z,2.51
2019-03-25T07:25:48.604Z,2.46
2019-03-25T07:26:48.837Z,2.54
2019-03-25T07:27:49.167Z,2.54
2019-03-25T07:28:49.510Z,2.57
2019-03-25T07:29:49.833Z,2.51
2019-03-25T07:30:50.157Z,2.59
2019-03-25T07:31:50.477Z,2.62
2019-03-25T07:32:50.834Z,2.72
2019-03-25T07:33:51.261Z,2.88
2019-03-25T07:34:51.483Z,2.87
2019-03-25T07:35:51.812Z,2.68
2019-03-25T07:36:52.170Z,2.68
2019-03-25T07:37:52.456Z,2.73
2019-03-25T07:38:52.822Z,2.73
2019-03-25T07:39:53.141Z,2.76
2019-03-25T07:40:53.466Z,2.87
2019-03-25T07:41:53.873Z,2.85
2019-03-25T07:42:54.074Z,2.85
2019-03-25T07:43:54.454Z,2.87
2019-03-25T07:44:54.829Z,2.87
2019-03-25T07:45:55.123Z,2.82
2019-03-25T07:46:55.473Z,2.95
2019-03-25T07:47:55.784Z,2.97
2019-03-25T07:48:56.134Z,3.06
2019-03-25T07:49:56.474Z,3.01
2019-03-25T07:50:56.861Z,3.05
2019-03-25T07:51:57.125Z,3.13
2019-03-25T07:52:57.438Z,3.11
2019-03-25T07:53:57.794Z,3.16
2019-03-25T07:54:58.119Z,3.24
2019-03-25T07:55:58.434Z,3.26
2019-03-25T07:56:58.787Z,3.40
2019-03-25T07:57:59.098Z,3.33
2019-03-25T07:58:59.546Z,3.41
2019-03-25T07:59:59.782Z,3.46
2019-03-25T08:01:00.075Z,3.53
2019-03-25T08:02:00.423Z,3.37
2019-03-25T08:03:00.735Z,3.46
2019-03-25T08:04:01.092Z,3.41
2019-03-25T08:05:01.431Z,3.52
2019-03-25T08:06:01.730Z,3.63
2019-03-25T08:07:02.182Z,3.81
2019-03-25T08:08:02.392Z,3.99
2019-03-25T08:09:03.919Z,4.09
2019-03-25T08:10:03.126Z,4.00
2019-03-25T08:11:03.373Z,4.06
2019-03-25T08:12:03.772Z,4.07
2019-03-25T08:13:04.093Z,3.96
2019-03-25T08:14:04.430Z,3.96
2019-03-25T08:15:04.854Z,4.03
2019-03-25T08:16:05.022Z,4.03
2019-03-25T08:17:05.359Z,4.07
2019-03-25T08:18:05.690Z,4.04
2019-03-25T08:19:06.030Z,4.04
2019-03-25T08:20:06.376Z,4.04
2019-03-25T08:21:06.674Z,4.07
2019-03-25T08:22:07.027Z,4.06
2019-03-25T08:23:07.361Z,4.02
2019-03-25T08:24:07.712Z,4.14
2019-03-25T08:25:08.020Z,4.12
2019-03-25T08:26:08.335Z,4.21
2019-03-25T08:27:08.673Z,4.14
2019-03-25T08:28:08.977Z,4.18
2019-03-25T08:29:09.326Z,4.22
2019-03-25T08:30:09.681Z,4.36
2019-03-25T08:31:10.059Z,4.30
2019-03-25T08:32:10.466Z,4.46
2019-03-25T08:33:10.647Z,4.50
2019-03-25T08:34:10.991Z,4.74
2019-03-25T08:35:11.345Z,4.84
2019-03-25T08:36:11.687Z,5.02
2019-03-25T08:37:12.021Z,4.95
2019-03-25T08:38:12.325Z,5.13
2019-03-25T08:39:12.645Z,5.13
2019-03-25T08:40:13.189Z,5.04
2019-03-25T08:41:13.399Z,5.07
2019-03-25T08:42:13.737Z,5.13
2019-03-25T08:43:14.049Z,5.25
2019-03-25T08:44:14.369Z,5.28
2019-03-25T08:45:14.725Z,5.16
2019-03-25T08:46:15.049Z,5.16
2019-03-25T08:47:15.388Z,5.08
2019-03-25T08:48:15.786Z,4.94
2019-03-25T08:49:16.014Z,4.94
2019-03-25T08:50:16.353Z,4.95
2019-03-25T08:51:16.690Z,4.95
2019-03-25T08:52:17.026Z,4.92
2019-03-25T08:53:17.340Z,4.89
2019-03-25T08:54:17.673Z,4.90
2019-03-25T08:55:18.261Z,4.87
2019-03-25T08:56:18.348Z,4.92
2019-03-25T08:57:18.661Z,4.95
2019-03-25T08:58:18.985Z,5.00
2019-03-25T08:59:19.310Z,5.23
2019-03-25T09:00:19.669Z,5.20
2019-03-25T09:01:19.986Z,5.37
2019-03-25T09:02:20.314Z,5.54
2019-03-25T09:03:20.649Z,5.64
2019-03-25T09:04:21.240Z,5.73
2019-03-25T09:05:21.414Z,5.90
2019-03-25T09:06:21.643Z,5.94
2019-03-25T09:07:21.965Z,5.99
2019-03-25T09:08:22.294Z,5.84
2019-03-25T09:09:22.640Z,5.92
2019-03-25T09:10:22.986Z,5.80
2019-03-25T09:11:23.309Z,5.81
2019-03-25T09:12:23.650Z,5.80
2019-03-25T09:13:24.045Z,5.74
2019-03-25T09:14:24.283Z,5.87
2019-03-25T09:15:24.626Z,5.72
2019-03-25T09:16:24.946Z,5.76
2019-03-25T09:17:25.295Z,5.76
2019-03-25T09:18:25.595Z,5.59
2019-03-25T09:19:25.949Z,5.51
2019-03-25T09:20:26.309Z,5.46
2019-03-25T09:21:26.727Z,5.33
2019-03-25T09:22:26.955Z,5.41
2019-03-25T09:23:27.267Z,5.40
2019-03-25T09:24:27.585Z,5.38
2019-03-25T09:25:27.954Z,5.59
2019-03-25T09:26:28.268Z,5.56
2019-03-25T09:27:28.597Z,5.62
2019-03-25T09:28:28.917Z,5.64
2019-03-25T09:29:29.268Z,5.77
2019-03-25T09:30:29.573Z,5.84
2019-03-25T09:31:36.838Z,5.94
2019-03-25T09:32:31.259Z,5.99
2019-03-25T09:33:30.581Z,6.15
2019-03-25T09:34:30.897Z,6.10
2019-03-25T09:35:31.251Z,6.12
2019-03-25T09:36:31.570Z,5.99
2019-03-25T09:37:31.949Z,5.88
2019-03-25T09:38:32.266Z,5.94
2019-03-25T09:39:32.566Z,6.05
2019-03-25T09:40:32.903Z,6.09
2019-03-25T09:41:33.229Z,5.99
2019-03-25T09:42:33.549Z,5.95
2019-03-25T09:43:33.872Z,5.97
2019-03-25T09:44:34.202Z,5.90
2019-03-25T09:45:34.577Z,5.88
2019-03-25T09:46:34.979Z,5.76
2019-03-25T09:47:37.642Z,5.88
2019-03-25T09:48:35.530Z,5.95
2019-03-25T09:49:35.865Z,6.06
2019-03-25T09:50:36.210Z,6.26
2019-03-25T09:51:36.532Z,6.39
2019-03-25T09:52:38.665Z,6.47
2019-03-25T09:53:37.189Z,6.62
2019-03-25T09:54:37.660Z,6.57
2019-03-25T09:55:37.885Z,6.71
2019-03-25T09:56:38.214Z,6.82
2019-03-25T09:57:38.510Z,6.62
2019-03-25T09:58:38.876Z,6.60
2019-03-25T09:59:39.183Z,6.59
2019-03-25T10:00:39.534Z,6.74
2019-03-25T10:01:39.848Z,6.71
2019-03-25T10:02:40.208Z,6.74
2019-03-25T10:03:40.499Z,6.59
2019-03-25T10:04:40.835Z,6.36
2019-03-25T10:05:41.179Z,6.32
2019-03-25T10:06:41.502Z,6.35
2019-03-25T10:07:41.843Z,6.28
2019-03-25T10:08:42.170Z,6.29
2019-03-25T10:09:42.469Z,6.25
2019-03-25T10:10:42.886Z,6.32
2019-03-25T10:11:43.117Z,6.35
2019-03-25T10:12:43.479Z,6.38
2019-03-25T10:13:43.797Z,6.39
2019-03-25T10:14:44.102Z,6.50
2019-03-25T10:15:44.466Z,6.52
2019-03-25T10:16:44.803Z,6.59
2019-03-25T10:17:45.132Z,6.77
2019-03-25T10:18:45.492Z,6.80
2019-03-25T10:19:45.858Z,6.96
2019-03-25T10:20:46.131Z,7.01
2019-03-25T10:21:46.457Z,7.19
2019-03-25T10:22:46.795Z,7.23
2019-03-25T10:23:47.147Z,7.31
2019-03-25T10:24:47.446Z,7.37
2019-03-25T10:25:47.796Z,7.37
2019-03-25T10:26:48.095Z,7.32
2019-03-25T10:27:48.575Z,7.32
2019-03-25T10:28:49.315Z,7.36
2019-03-25T10:29:49.094Z,7.58
2019-03-25T10:30:49.428Z,7.53
2019-03-25T10:31:49.749Z,7.61
2019-03-25T10:32:50.095Z,7.44
2019-03-25T10:33:50.431Z,7.51
2019-03-25T10:34:50.979Z,7.58
2019-03-25T10:35:51.181Z,7.56
2019-03-25T10:36:51.387Z,7.44
2019-03-25T10:37:51.816Z,7.50
2019-03-25T10:38:52.076Z,7.29
2019-03-25T10:39:52.388Z,7.25
2019-03-25T10:40:52.728Z,7.07
2019-03-25T10:41:53.049Z,7.18
2019-03-25T10:42:53.371Z,7.14
2019-03-25T10:43:53.760Z,7.19
2019-03-25T10:44:54.036Z,7.40
2019-03-25T10:45:54.388Z,7.43
2019-03-25T10:46:54.698Z,7.40
2019-03-25T10:47:55.055Z,7.33
2019-03-25T10:48:55.407Z,7.51
2019-03-25T10:49:55.683Z,7.53
2019-03-25T10:50:56.032Z,7.53
2019-03-25T10:51:56.385Z,7.69
2019-03-25T10:52:56.754Z,7.69
2019-03-25T10:53:57.026Z,7.70
2019-03-25T10:55:57.701Z,7.90
2019-03-25T10:56:58.051Z,7.99
2019-03-25T10:57:58.386Z,8.05
2019-03-25T10:58:58.728Z,8.14
2019-03-25T10:59:59.049Z,8.26
2019-03-25T11:00:59.487Z,8.27
2019-03-25T11:01:59.709Z,8.36
2019-03-25T11:03:00.038Z,8.31
2019-03-25T11:04:00.377Z,8.44
2019-03-25T11:05:00.676Z,8.31
2019-03-25T11:06:01.017Z,8.54
2019-03-25T11:07:01.374Z,8.52
2019-03-25T11:08:01.681Z,8.41
2019-03-25T11:09:02.117Z,8.54
2019-03-25T11:10:02.320Z,8.49
2019-03-25T11:11:03.522Z,8.60
2019-03-25T11:12:03.046Z,8.66
2019-03-25T11:13:03.337Z,8.69
2019-03-25T11:14:03.671Z,8.60
2019-03-25T11:15:03.984Z,8.63
2019-03-25T11:16:04.300Z,8.66
2019-03-25T11:17:04.701Z,8.64
2019-03-25T11:18:05.802Z,8.57
2019-03-25T11:19:05.312Z,8.71
2019-03-25T11:20:05.623Z,8.90
2019-03-25T11:21:05.953Z,9.05
2019-03-25T11:22:06.285Z,9.12
2019-03-25T11:23:06.625Z,9.09
2019-03-25T11:24:06.959Z,9.26
2019-03-25T11:25:07.338Z,9.31
2019-03-25T11:26:07.577Z,9.42
2019-03-25T11:27:07.932Z,9.21
2019-03-25T11:28:08.241Z,9.11
2019-03-25T11:29:08.956Z,9.05
2019-03-25T11:30:08.909Z,9.09
2019-03-25T11:31:09.370Z,9.03
2019-03-25T11:32:09.590Z,8.95
2019-03-25T11:33:09.941Z,9.03
2019-03-25T11:34:10.292Z,9.13
2019-03-25T11:35:10.558Z,9.21
2019-03-25T11:36:10.879Z,9.13
2019-03-25T11:37:11.283Z,9.02
2019-03-25T11:38:11.555Z,8.86
2019-03-25T11:39:11.879Z,8.72
2019-03-25T11:40:12.213Z,8.44
2019-03-25T11:41:12.542Z,8.18
2019-03-25T11:42:12.985Z,7.91
2019-03-25T11:43:13.191Z,7.67
2019-03-25T11:44:13.536Z,7.55
2019-03-25T11:45:13.864Z,7.40
2019-03-25T11:46:14.193Z,7.29
2019-03-25T11:47:14.540Z,7.14
2019-03-25T11:48:14.865Z,7.00
2019-03-25T11:49:15.197Z,6.87
2019-03-25T11:50:15.611Z,6.54
2019-03-25T11:51:15.837Z,6.52
2019-03-25T11:52:16.178Z,6.47
2019-03-25T11:53:16.510Z,6.59
2019-03-25T11:54:16.816Z,6.53
2019-03-25T11:55:17.827Z,6.62
2019-03-25T11:56:17.490Z,6.53
2019-03-25T11:57:17.874Z,6.60
2019-03-25T11:58:18.203Z,6.72
2019-03-25T11:59:18.998Z,6.77
2019-03-25T12:00:18.796Z,6.80
2019-03-25T12:01:19.148Z,6.86
2019-03-25T12:02:19.500Z,7.00
2019-03-25T12:03:19.826Z,7.03
2019-03-25T12:04:20.145Z,7.03
2019-03-25T12:05:20.494Z,7.10
2019-03-25T12:06:20.865Z,7.13
2019-03-25T12:07:21.195Z,7.22
2019-03-25T12:08:21.505Z,7.36
2019-03-25T12:09:21.816Z,7.44
2019-03-25T12:10:22.162Z,7.48
2019-03-25T12:11:23.663Z,7.59
2019-03-25T12:12:22.809Z,7.67
2019-03-25T12:13:23.165Z,7.78
2019-03-25T12:14:23.495Z,7.77
2019-03-25T12:15:24.163Z,7.91
2019-03-25T12:16:24.108Z,8.20
2019-03-25T12:17:24.469Z,8.34
2019-03-25T12:18:24.821Z,8.63
2019-03-25T12:19:25.128Z,8.63
2019-03-25T12:20:25.476Z,8.63
2019-03-25T12:21:25.783Z,8.74
2019-03-25T12:22:26.136Z,8.74
2019-03-25T12:23:26.758Z,8.87
2019-03-25T12:24:26.783Z,9.15
2019-03-25T12:25:27.143Z,9.37
2019-03-25T12:26:27.444Z,9.51
2019-03-25T12:27:27.855Z,9.67
2019-03-25T12:28:28.121Z,9.62
2019-03-25T12:29:30.330Z,9.51
2019-03-25T12:30:28.787Z,9.40
2019-03-25T12:31:29.144Z,9.37
2019-03-25T12:32:29.425Z,9.48
2019-03-25T12:33:29.804Z,9.69
2019-03-25T12:34:30.141Z,9.74
2019-03-25T12:35:30.435Z,9.63
2019-03-25T12:36:30.752Z,9.59
2019-03-25T12:37:31.098Z,9.62
2019-03-25T12:38:31.412Z,9.81
2019-03-25T12:39:31.784Z,9.88
2019-03-25T12:40:32.070Z,9.73
2019-03-25T12:41:32.384Z,9.73
2019-03-25T12:42:32.737Z,9.70
2019-03-25T12:43:33.090Z,9.47
2019-03-25T12:44:33.386Z,9.19
2019-03-25T12:45:33.718Z,9.02
2019-03-25T12:46:34.048Z,8.95
2019-03-25T12:47:34.449Z,9.00
2019-03-25T12:48:34.811Z,9.02
2019-03-25T12:49:35.050Z,9.08
2019-03-25T12:50:35.378Z,9.09
2019-03-25T12:51:35.706Z,9.08
2019-03-25T12:52:36.071Z,8.93
2019-03-25T12:53:36.412Z,8.96
2019-03-25T12:54:36.714Z,8.93
2019-03-25T12:55:37.075Z,9.08
2019-03-25T12:56:37.490Z,9.18
2019-03-25T12:57:37.711Z,9.16
2019-03-25T12:58:38.042Z,9.16
2019-03-25T12:59:41.198Z,9.02
2019-03-25T13:00:38.714Z,9.02
2019-03-25T13:01:39.012Z,9.02
2019-03-25T13:02:39.360Z,8.97
2019-03-25T13:03:40.672Z,9.00
2019-03-25T13:04:40.136Z,9.05
2019-03-25T13:05:40.387Z,8.97
2019-03-25T13:06:40.701Z,8.96
2019-03-25T13:07:41.018Z,9.00
2019-03-25T13:08:41.378Z,9.00
2019-03-25T13:09:41.729Z,9.02
2019-03-25T13:10:42.054Z,9.05
2019-03-25T13:11:42.368Z,9.09
2019-03-25T13:12:42.736Z,9.15
2019-03-25T13:13:43.010Z,9.18
2019-03-25T13:14:43.360Z,9.19
2019-03-25T13:15:43.695Z,9.24
2019-03-25T13:16:44.002Z,9.21
2019-03-25T13:17:44.332Z,9.36
2019-03-25T13:18:44.681Z,9.47
2019-03-25T13:19:44.997Z,9.58
2019-03-25T13:20:45.409Z,9.66
2019-03-25T13:21:45.703Z,9.66
2019-03-25T13:22:45.994Z,9.72
2019-03-25T13:23:46.342Z,9.85